Time;durP1;ratioP1;P1;durP2;ratioP2;P2;SDS_P1;SDS_P2;PMS_P1;PMS_P2;Temp;Humidity;BMP_temperature;BMP_pressure;BME280_temperature;BME280_humidity;BME280_pressure;Samples;Min_cycle;Max_cycle;Signal;HPM_P1;HPM_P2
2022/10/02 00:00:40;;;;;;;;;;;11.50;99.90;;;;;;5075277;28;20544;-84
2022/10/02 00:03:10;;;;;;;;;;;11.50;99.90;;;;;;5076086;28;20410;-82
2022/10/02 00:05:39;;;;;;;;;;;11.60;99.90;;;;;;5075107;28;19951;-81
2022/10/02 00:08:09;;;;;;;;;;;11.70;99.90;;;;;;5074874;28;19971;-81
2022/10/02 00:10:38;;;;;;;;;;;12.30;99.90;;;;;;5067366;28;19924;-82
2022/10/02 00:13:07;;;;;;;;;;;11.80;99.90;;;;;;5074972;28;19983;-81
2022/10/02 00:15:35;;;;;;;;;;;11.80;99.90;;;;;;5074623;28;20185;-81
2022/10/02 00:18:07;;;;;;;;;;;11.90;99.90;;;;;;5076363;28;20453;-80
2022/10/02 00:20:38;;;;;;;;;;;12.00;99.90;;;;;;5074731;28;19973;-81
2022/10/02 00:23:07;;;;;;;;;;;12.00;99.90;;;;;;5074053;28;19928;-82
2022/10/02 00:25:39;;;;;;;;;;;12.10;99.90;;;;;;5075236;28;20375;-81
2022/10/02 00:28:12;;;;;;;;;;;12.10;99.90;;;;;;5075101;28;20338;-81
2022/10/02 00:30:44;;;;;;;;;;;12.10;99.90;;;;;;5075409;28;19947;-80
2022/10/02 00:33:15;;;;;;;;;;;12.10;99.90;;;;;;5073695;28;19928;-83
2022/10/02 00:35:55;;;;;;;;;;;12.10;99.90;;;;;;5075736;28;20015;-84
2022/10/02 00:38:32;;;;;;;;;;;12.20;99.90;;;;;;5075640;28;19924;-82
2022/10/02 00:41:09;;;;;;;;;;;12.20;99.90;;;;;;5074975;28;20518;-81
2022/10/02 00:43:40;;;;;;;;;;;12.20;99.90;;;;;;5074511;28;20338;-83
2022/10/02 00:46:15;;;;;;;;;;;12.30;99.90;;;;;;5075632;28;19936;-84
2022/10/02 00:48:59;;;;;;;;;;;12.30;99.90;;;;;;5058178;28;20445;-82
2022/10/02 00:51:36;;;;;;;;;;;12.30;99.90;;;;;;5072809;28;19947;-82
2022/10/02 00:54:08;;;;;;;;;;;12.40;99.90;;;;;;5073659;28;19966;-82
2022/10/02 00:56:40;;;;;;;;;;;12.40;99.90;;;;;;5074556;28;19929;-84
2022/10/02 00:59:13;;;;;;;;;;;12.50;99.90;;;;;;5075255;28;19935;-83
2022/10/02 01:01:42;;;;;;;;;;;12.50;99.90;;;;;;5074335;28;19924;-85
2022/10/02 01:04:13;;;;;;;;;;;12.60;99.90;;;;;;5075901;28;19934;-83
2022/10/02 01:06:40;;;;;;;;;;;12.60;99.90;;;;;;5074974;28;19937;-82
2022/10/02 01:09:07;;;;;;;;;;;12.60;99.90;;;;;;5074260;28;20008;-83
2022/10/02 01:11:35;;;;;;;;;;;12.70;99.90;;;;;;5076156;28;19938;-83
2022/10/02 01:14:01;;;;;;;;;;;12.70;99.90;;;;;;5075466;28;19955;-83
2022/10/02 01:16:28;;;;;;;;;;;12.70;99.90;;;;;;5069473;28;19929;-83
2022/10/02 01:18:55;;;;;;;;;;;12.70;99.90;;;;;;5075372;28;19928;-82
2022/10/02 01:21:28;;;;;;;;;;;12.70;99.90;;;;;;5073329;28;19936;-83
2022/10/02 01:23:59;;;;;;;;;;;12.80;99.90;;;;;;5073669;28;19963;-81
2022/10/02 01:26:27;;;;;;;;;;;12.80;99.90;;;;;;5075603;28;19928;-82
2022/10/02 01:28:54;;;;;;;;;;;12.80;99.90;;;;;;5074111;28;20418;-82
2022/10/02 01:31:23;;;;;;;;;;;12.90;99.90;;;;;;5073932;28;19990;-82
2022/10/02 01:33:50;;;;;;;;;;;12.90;99.90;;;;;;5074400;28;20314;-82
2022/10/02 01:36:18;;;;;;;;;;;12.90;99.90;;;;;;5075752;28;19925;-82
2022/10/02 01:38:45;;;;;;;;;;;;;;;;;;5074985;28;19948;-82
2022/10/02 01:41:12;;;;;;;;;;;13.00;99.90;;;;;;5073702;28;19924;-82
2022/10/02 01:43:42;;;;;;;;;;;13.00;99.90;;;;;;5073525;28;20026;-82
2022/10/02 01:46:27;;;;;;;;;;;13.00;99.90;;;;;;5069818;28;19928;-82
2022/10/02 01:52:19;;;;;;;;;;;12.90;99.90;;;;;;5075463;28;20027;-83
2022/10/02 01:54:55;;;;;;;;;;;13.00;99.90;;;;;;5057581;28;19928;-83
2022/10/02 01:57:26;;;;;;;;;;;13.00;99.90;;;;;;5072388;28;20002;-79
2022/10/02 01:59:59;;;;;;;;;;;13.00;99.90;;;;;;5070873;28;19928;-81
2022/10/02 02:02:29;;;;;;;;;;;13.00;99.90;;;;;;5072622;28;19978;-82
2022/10/02 02:04:58;;;;;;;;;;;13.00;99.90;;;;;;5072059;28;19928;-80
2022/10/02 02:07:29;;;;;;;;;;;13.00;99.90;;;;;;5070807;28;19964;-80
2022/10/02 02:09:59;;;;;;;;;;;13.10;99.90;;;;;;5073356;28;19976;-82
2022/10/02 02:12:28;;;;;;;;;;;13.10;99.90;;;;;;5075611;28;19978;-81
2022/10/02 02:14:59;;;;;;;;;;;13.10;99.90;;;;;;5074420;28;20229;-82
2022/10/02 02:17:30;;;;;;;;;;;13.20;99.90;;;;;;5075375;28;19956;-81
2022/10/02 02:20:00;;;;;;;;;;;13.20;99.90;;;;;;5075239;28;19944;-81
2022/10/02 02:22:28;;;;;;;;;;;13.20;99.90;;;;;;5073015;28;19928;-82
2022/10/02 02:24:58;;;;;;;;;;;13.30;99.90;;;;;;5073843;28;19928;-82
2022/10/02 02:27:28;;;;;;;;;;;13.40;99.90;;;;;;5073509;28;19985;-82
2022/10/02 02:29:58;;;;;;;;;;;13.50;99.90;;;;;;5073104;28;20331;-82
2022/10/02 02:32:27;;;;;;;;;;;13.40;99.90;;;;;;5072003;28;19936;-81
2022/10/02 02:34:57;;;;;;;;;;;13.50;99.90;;;;;;5073819;28;20438;-82
2022/10/02 02:37:25;;;;;;;;;;;13.50;99.90;;;;;;5073374;28;20396;-82
2022/10/02 02:39:53;;;;;;;;;;;13.50;99.90;;;;;;5073978;28;19928;-82
2022/10/02 02:42:22;;;;;;;;;;;13.50;99.90;;;;;;5074152;28;20000;-83
2022/10/02 02:44:52;;;;;;;;;;;13.50;99.90;;;;;;5071524;28;19924;-81
2022/10/02 02:47:22;;;;;;;;;;;13.50;99.90;;;;;;5081041;28;19925;-82
2022/10/02 02:49:54;;;;;;;;;;;13.50;99.90;;;;;;5084858;28;19925;-84
2022/10/02 02:52:24;;;;;;;;;;;13.50;99.90;;;;;;5080812;28;19925;-82
2022/10/02 02:54:53;;;;;;;;;;;13.50;99.90;;;;;;5083820;28;19946;-85
2022/10/02 02:57:24;;;;;;;;;;;13.50;99.90;;;;;;5084047;28;19936;-81
2022/10/02 02:59:53;;;;;;;;;;;13.50;99.90;;;;;;5082630;28;19924;-82
2022/10/02 03:02:22;;;;;;;;;;;13.50;99.90;;;;;;5079671;28;19928;-81
2022/10/02 03:04:49;;;;;;;;;;;13.50;99.90;;;;;;5079363;28;19925;-81
2022/10/02 03:07:16;;;;;;;;;;;13.50;99.90;;;;;;5078888;28;19944;-82
2022/10/02 03:09:52;;;;;;;;;;;13.60;99.90;;;;;;5078358;28;19928;-81
2022/10/02 03:12:25;;;;;;;;;;;13.60;99.90;;;;;;5078276;28;19935;-82
2022/10/02 03:15:02;;;;;;;;;;;13.60;99.90;;;;;;5079901;28;19916;-81
2022/10/02 03:17:39;;;;;;;;;;;13.60;99.90;;;;;;5079751;28;19974;-81
2022/10/02 03:20:10;;;;;;;;;;;13.60;99.90;;;;;;5081509;28;19928;-82
2022/10/02 03:22:43;;;;;;;;;;;13.60;99.90;;;;;;5079748;28;19931;-83
2022/10/02 03:25:12;;;;;;;;;;;13.60;99.90;;;;;;5081859;28;20396;-82
2022/10/02 03:27:42;;;;;;;;;;;13.60;99.90;;;;;;5079283;28;19928;-82
2022/10/02 03:30:11;;;;;;;;;;;13.60;99.90;;;;;;5077605;28;19925;-81
2022/10/02 03:32:41;;;;;;;;;;;13.60;99.90;;;;;;5078936;28;19928;-82
2022/10/02 03:35:10;;;;;;;;;;;13.60;99.90;;;;;;5080216;28;19959;-82
2022/10/02 03:37:39;;;;;;;;;;;13.70;99.90;;;;;;5079349;28;19959;-82
2022/10/02 03:40:06;;;;;;;;;;;;;;;;;;5079323;28;19982;-82
2022/10/02 03:42:34;;;;;;;;;;;13.80;99.90;;;;;;5078502;28;19943;-83
2022/10/02 03:45:01;;;;;;;;;;;13.90;99.90;;;;;;5080069;28;20360;-82
2022/10/02 03:47:28;;;;;;;;;;;14.00;99.90;;;;;;5072290;28;19924;-81
2022/10/02 03:49:56;;;;;;;;;;;14.00;99.90;;;;;;5076196;28;19935;-82
2022/10/02 03:52:23;;;;;;;;;;;14.00;99.90;;;;;;5076743;28;19942;-81
2022/10/02 03:54:53;;;;;;;;;;;14.10;99.90;;;;;;5075077;28;19936;-82
2022/10/02 03:57:22;;;;;;;;;;;14.20;99.90;;;;;;5076493;28;19924;-80
2022/10/02 03:59:53;;;;;;;;;;;14.20;99.90;;;;;;5078341;28;19924;-81
2022/10/02 04:02:23;;;;;;;;;;;14.20;99.90;;;;;;5080991;28;19928;-81
2022/10/02 04:04:54;;;;;;;;;;;14.20;99.90;;;;;;5083442;28;19931;-82
2022/10/02 04:07:25;;;;;;;;;;;14.30;99.90;;;;;;5082428;28;19929;-81
2022/10/02 04:09:57;;;;;;;;;;;14.30;99.90;;;;;;5081209;28;19928;-82
2022/10/02 04:12:26;;;;;;;;;;;14.30;99.90;;;;;;5080765;28;19928;-81
2022/10/02 04:14:55;;;;;;;;;;;14.30;99.90;;;;;;5080450;28;19989;-81
2022/10/02 04:17:24;;;;;;;;;;;14.30;99.90;;;;;;5080799;28;20347;-82
2022/10/02 04:19:52;;;;;;;;;;;14.30;99.90;;;;;;5080776;28;19932;-82
2022/10/02 04:22:23;;;;;;;;;;;14.30;99.90;;;;;;5083318;28;19940;-81
2022/10/02 04:24:57;;;;;;;;;;;14.30;99.90;;;;;;5083176;28;20075;-82
2022/10/02 04:27:29;;;;;;;;;;;14.30;99.90;;;;;;5082189;28;19946;-82
2022/10/02 04:29:59;;;;;;;;;;;14.30;99.90;;;;;;5082647;28;19932;-81
2022/10/02 04:32:27;;;;;;;;;;;14.20;99.90;;;;;;5081068;28;19968;-81
2022/10/02 04:34:54;;;;;;;;;;;14.20;99.90;;;;;;5081058;28;19928;-82
2022/10/02 04:37:32;;;;;;;;;;;14.20;99.90;;;;;;5081510;28;19964;-82
2022/10/02 04:40:08;;;;;;;;;;;14.90;99.90;;;;;;5081972;28;19967;-83
2022/10/02 04:42:40;;;;;;;;;;;14.10;99.90;;;;;;5080585;28;19998;-82
2022/10/02 04:45:13;;;;;;;;;;;14.10;99.90;;;;;;5078819;28;19930;-82
2022/10/02 04:47:47;;;;;;;;;;;14.10;99.90;;;;;;5080176;28;19932;-82
2022/10/02 04:50:31;;;;;;;;;;;14.10;99.90;;;;;;5080329;28;19977;-80
2022/10/02 04:53:15;;;;;;;;;;;14.10;99.90;;;;;;5080601;28;19982;-81
2022/10/02 04:55:59;;;;;;;;;;;14.10;99.90;;;;;;5080652;28;19928;-82
2022/10/02 04:58:47;;;;;;;;;;;14.10;99.90;;;;;;5063431;28;20474;-81
2022/10/02 05:01:22;;;;;;;;;;;14.00;99.90;;;;;;5071391;28;19929;-82
2022/10/02 05:03:56;;;;;;;;;;;14.00;99.90;;;;;;5080929;28;19946;-81
2022/10/02 05:06:30;;;;;;;;;;;13.90;99.90;;;;;;5078331;28;19924;-83
2022/10/02 05:09:02;;;;;;;;;;;13.80;99.90;;;;;;5080993;28;19978;-81
2022/10/02 05:11:37;;;;;;;;;;;13.80;99.90;;;;;;5067286;28;19936;-82
2022/10/02 05:14:22;;;;;;;;;;;13.70;99.90;;;;;;5070490;28;19928;-82
2022/10/02 05:16:57;;;;;;;;;;;13.70;99.90;;;;;;5067980;28;19986;-84
2022/10/02 05:19:47;;;;;;;;;;;13.70;99.90;;;;;;5072531;28;19963;-84
2022/10/02 05:22:32;;;;;;;;;;;13.70;99.90;;;;;;5069318;28;20010;-81
2022/10/02 05:25:05;;;;;;;;;;;13.70;99.90;;;;;;5053530;28;20392;-81
2022/10/02 05:27:41;;;;;;;;;;;13.70;99.90;;;;;;5076199;28;19989;-81
2022/10/02 05:30:10;;;;;;;;;;;13.80;99.90;;;;;;5073039;28;19977;-81
2022/10/02 05:32:52;;;;;;;;;;;13.80;99.90;;;;;;5078415;28;20307;-82
2022/10/02 05:35:29;;;;;;;;;;;13.80;99.90;;;;;;5060266;28;19954;-81
2022/10/02 05:38:02;;;;;;;;;;;13.70;99.90;;;;;;5079517;28;19938;-81
2022/10/02 05:40:31;;;;;;;;;;;13.70;99.90;;;;;;5078904;28;19929;-82
2022/10/02 05:43:04;;;;;;;;;;;13.70;99.90;;;;;;5072131;28;19924;-82
2022/10/02 05:45:33;;;;;;;;;;;13.70;99.90;;;;;;5073184;28;20023;-82
2022/10/02 05:48:03;;;;;;;;;;;13.70;99.90;;;;;;5070784;28;19931;-80
2022/10/02 05:50:34;;;;;;;;;;;13.70;99.90;;;;;;5071027;28;19951;-80
2022/10/02 05:53:03;;;;;;;;;;;13.70;99.90;;;;;;5073855;28;20348;-83
2022/10/02 05:55:33;;;;;;;;;;;13.80;99.90;;;;;;5069016;28;20411;-81
2022/10/02 05:58:03;;;;;;;;;;;13.90;99.90;;;;;;5075185;28;19924;-81
2022/10/02 06:00:34;;;;;;;;;;;13.90;99.90;;;;;;5075612;28;19960;-82
2022/10/02 06:03:07;;;;;;;;;;;13.90;99.90;;;;;;5072681;28;20361;-79
2022/10/02 06:05:41;;;;;;;;;;;13.90;99.90;;;;;;5071057;28;20350;-79
2022/10/02 06:08:10;;;;;;;;;;;14.00;99.90;;;;;;5071854;28;19931;-79
2022/10/02 06:10:41;;;;;;;;;;;14.00;99.90;;;;;;5078372;28;19939;-81
2022/10/02 06:13:12;;;;;;;;;;;14.00;99.90;;;;;;5081152;28;19938;-82
2022/10/02 06:15:42;;;;;;;;;;;14.10;99.90;;;;;;5068440;28;19925;-84
2022/10/02 06:18:12;;;;;;;;;;;14.10;99.90;;;;;;5079414;28;19928;-83
2022/10/02 06:20:43;;;;;;;;;;;14.20;99.90;;;;;;5071858;28;20011;-83
2022/10/02 06:23:12;;;;;;;;;;;14.20;99.90;;;;;;5076982;28;19929;-83
2022/10/02 06:25:43;;;;;;;;;;;14.30;99.90;;;;;;5073970;28;19967;-84
2022/10/02 06:28:13;;;;;;;;;;;14.40;99.90;;;;;;5072029;28;19933;-83
2022/10/02 06:30:43;;;;;;;;;;;14.40;99.90;;;;;;5074534;28;20460;-82
2022/10/02 06:33:13;;;;;;;;;;;14.50;99.90;;;;;;5076022;28;20367;-84
2022/10/02 06:35:50;;;;;;;;;;;14.60;99.90;;;;;;5076743;28;19929;-83
2022/10/02 06:38:25;;;;;;;;;;;14.70;99.90;;;;;;5072089;28;19963;-84
2022/10/02 06:40:59;;;;;;;;;;;14.70;99.90;;;;;;5070094;28;20203;-82
2022/10/02 06:43:40;;;;;;;;;;;14.80;99.90;;;;;;5068385;28;20553;-82
2022/10/02 06:46:14;;;;;;;;;;;14.90;99.90;;;;;;5083788;28;20038;-83
2022/10/02 06:48:45;;;;;;;;;;;15.00;99.90;;;;;;5061444;28;19924;-81
2022/10/02 06:51:19;;;;;;;;;;;15.10;99.90;;;;;;5058799;28;19978;-82
2022/10/02 06:53:54;;;;;;;;;;;15.10;99.90;;;;;;5070230;28;19925;-81
2022/10/02 06:56:32;;;;;;;;;;;15.20;99.90;;;;;;5074437;28;19944;-82
2022/10/02 06:59:07;;;;;;;;;;;15.30;99.90;;;;;;5076051;28;19931;-82
2022/10/02 07:01:41;;;;;;;;;;;15.40;99.90;;;;;;5075257;28;19936;-82
2022/10/02 07:04:15;;;;;;;;;;;15.50;99.90;;;;;;5069244;28;19936;-82
2022/10/02 07:06:55;;;;;;;;;;;15.50;99.90;;;;;;5073723;28;19929;-82
2022/10/02 07:09:35;;;;;;;;;;;15.70;99.90;;;;;;5058867;28;20079;-84
2022/10/02 07:12:08;;;;;;;;;;;15.70;99.90;;;;;;5059622;28;19929;-85
2022/10/02 07:14:48;;;;;;;;;;;15.80;99.90;;;;;;5056852;28;19933;-83
2022/10/02 07:17:21;;;;;;;;;;;15.90;99.90;;;;;;5057265;28;20014;-83
2022/10/02 07:19:57;;;;;;;;;;;16.00;99.90;;;;;;5058172;28;19932;-84
2022/10/02 07:22:31;;;;;;;;;;;16.00;99.90;;;;;;5056030;28;19932;-84
2022/10/02 07:25:06;;;;;;;;;;;16.10;99.90;;;;;;5055240;28;19928;-84
2022/10/02 07:27:40;;;;;;;;;;;16.10;99.90;;;;;;5054970;28;19935;-84
2022/10/02 07:30:09;;;;;;;;;;;16.20;99.90;;;;;;5056681;28;19939;-83
2022/10/02 07:32:46;;;;;;;;;;;16.40;99.90;;;;;;5050872;28;19955;-83
2022/10/02 07:35:22;;;;;;;;;;;16.50;99.90;;;;;;5057038;28;19928;-81
2022/10/02 07:37:57;;;;;;;;;;;16.60;99.90;;;;;;5066815;28;19948;-79
2022/10/02 07:40:36;;;;;;;;;;;16.70;99.90;;;;;;5068003;28;20364;-81
2022/10/02 07:43:26;;;;;;;;;;;16.80;99.90;;;;;;5067677;28;20155;-82
2022/10/02 07:46:10;;;;;;;;;;;16.90;99.90;;;;;;5071725;28;19929;-83
2022/10/02 07:48:44;;;;;;;;;;;17.10;99.90;;;;;;5081746;28;19928;-80
2022/10/02 07:54:09;;;;;;;;;;;17.30;99.90;;;;;;5063741;28;19927;-83
2022/10/02 07:56:36;;;;;;;;;;;17.40;99.90;;;;;;5074882;28;20478;-78
2022/10/02 07:59:05;;;;;;;;;;;17.40;99.90;;;;;;5073227;28;20296;-79
2022/10/02 08:01:35;;;;;;;;;;;17.30;99.90;;;;;;5075622;28;19928;-78
2022/10/02 08:04:04;;;;;;;;;;;17.30;99.90;;;;;;5075771;28;19924;-80
2022/10/02 08:06:31;;;;;;;;;;;17.20;99.90;;;;;;5065442;28;19928;-81
2022/10/02 08:09:00;;;;;;;;;;;17.10;99.90;;;;;;5071043;28;19924;-79
2022/10/02 08:11:31;;;;;;;;;;;17.00;99.90;;;;;;5072399;28;19932;-78
2022/10/02 08:14:01;;;;;;;;;;;17.00;99.90;;;;;;5062361;28;20447;-75
2022/10/02 08:16:31;;;;;;;;;;;17.00;99.90;;;;;;5057971;28;19929;-78
2022/10/02 08:19:00;;;;;;;;;;;17.00;99.90;;;;;;5059024;28;20315;-78
2022/10/02 08:21:30;;;;;;;;;;;16.90;99.90;;;;;;5072723;28;19950;-78
2022/10/02 08:23:59;;;;;;;;;;;16.90;99.90;;;;;;5058589;28;19998;-76
2022/10/02 08:26:28;;;;;;;;;;;16.90;99.90;;;;;;5073297;28;19924;-79
2022/10/02 08:29:04;;;;;;;;;;;16.90;99.90;;;;;;5074823;28;19929;-76
2022/10/02 08:31:31;;;;;;;;;;;16.90;99.90;;;;;;5074703;28;19960;-77
2022/10/02 08:33:59;;;;;;;;;;;17.00;99.90;;;;;;5074838;28;20027;-77
2022/10/02 08:36:47;;;;;;;;;;;17.00;99.90;;;;;;5073260;28;19924;-78
2022/10/02 08:39:23;;;;;;;;;;;17.10;99.90;;;;;;5054453;28;19947;-78
2022/10/02 08:42:11;;;;;;;;;;;17.20;99.90;;;;;;5072199;28;20027;-78
2022/10/02 08:45:00;;;;;;;;;;;17.20;99.90;;;;;;5028955;28;19932;-78
2022/10/02 08:47:42;;;;;;;;;;;17.20;99.90;;;;;;5072429;28;20020;-77
2022/10/02 08:50:39;;;;;;;;;;;17.20;99.90;;;;;;5073519;28;19928;-78
2022/10/02 08:53:22;;;;;;;;;;;17.20;99.90;;;;;;5072710;28;19936;-78
2022/10/02 08:56:21;;;;;;;;;;;17.20;99.90;;;;;;5071689;28;19928;-77
2022/10/02 08:59:04;;;;;;;;;;;17.20;99.90;;;;;;4975913;28;20064;-78
2022/10/02 09:01:49;;;;;;;;;;;17.10;99.90;;;;;;5043318;28;19935;-77
2022/10/02 09:04:40;;;;;;;;;;;17.20;99.90;;;;;;5053212;28;19928;-79
2022/10/02 09:07:23;;;;;;;;;;;17.30;99.90;;;;;;4982677;28;19925;-79
2022/10/02 09:10:05;;;;;;;;;;;17.50;99.90;;;;;;5066391;28;19935;-79
2022/10/02 09:12:45;;;;;;;;;;;17.70;99.90;;;;;;5069613;28;20328;-80
2022/10/02 09:15:17;;;;;;;;;;;17.80;99.90;;;;;;5068302;28;19936;-80
2022/10/02 09:17:45;;;;;;;;;;;17.90;99.90;;;;;;5065962;28;19947;-81
2022/10/02 09:20:26;;;;;;;;;;;17.90;99.90;;;;;;5074194;28;20019;-80
2022/10/02 09:23:06;;;;;;;;;;;18.00;99.90;;;;;;5073510;28;19932;-80
2022/10/02 09:25:36;;;;;;;;;;;18.00;99.90;;;;;;5069468;28;19931;-79
2022/10/02 09:28:16;;;;;;;;;;;17.90;99.90;;;;;;5066789;28;19931;-80
2022/10/02 09:31:01;;;;;;;;;;;17.90;99.90;;;;;;5074467;28;20344;-81
2022/10/02 09:33:50;;;;;;;;;;;18.00;99.90;;;;;;5074248;28;19931;-82
2022/10/02 09:36:28;;;;;;;;;;;18.10;99.90;;;;;;5074509;28;19928;-82
2022/10/02 09:39:20;;;;;;;;;;;18.30;99.90;;;;;;5075982;28;20035;-82
2022/10/02 09:42:06;;;;;;;;;;;18.40;99.90;;;;;;5074725;28;19975;-81
2022/10/02 09:44:47;;;;;;;;;;;18.40;99.90;;;;;;5080762;28;19932;-83
2022/10/02 09:47:36;;;;;;;;;;;18.50;99.90;;;;;;5058075;28;19939;-81
2022/10/02 09:50:25;;;;;;;;;;;18.50;99.90;;;;;;5077711;28;19935;-80
2022/10/02 09:53:10;;;;;;;;;;;18.50;99.90;;;;;;5066026;28;19935;-81
2022/10/02 09:55:58;;;;;;;;;;;18.50;99.90;;;;;;5060567;28;19929;-82
2022/10/02 09:58:44;;;;;;;;;;;18.40;99.90;;;;;;5071104;28;19940;-81
2022/10/02 10:01:30;;;;;;;;;;;18.40;99.90;;;;;;5067358;28;19982;-81
2022/10/02 10:04:15;;;;;;;;;;;18.50;99.90;;;;;;5050238;28;19940;-81
2022/10/02 10:07:06;;;;;;;;;;;18.60;99.90;;;;;;5087095;28;19933;-82
2022/10/02 10:09:52;;;;;;;;;;;19.30;99.90;;;;;;5071751;28;19955;-82
2022/10/02 10:12:25;;;;;;;;;;;19.30;99.90;;;;;;5088265;28;19946;-81
2022/10/02 10:15:14;;;;;;;;;;;19.70;99.90;;;;;;5078995;28;19984;-82
2022/10/02 10:17:55;;;;;;;;;;;19.90;99.90;;;;;;5050351;28;19928;-82
2022/10/02 10:20:33;;;;;;;;;;;20.10;99.90;;;;;;5075258;28;20012;-81
2022/10/02 10:23:19;;;;;;;;;;;20.20;99.90;;;;;;5068371;28;19933;-82
2022/10/02 10:26:04;;;;;;;;;;;20.20;99.90;;;;;;5074073;28;19975;-80
2022/10/02 10:28:50;;;;;;;;;;;20.20;99.90;;;;;;5070564;28;20034;-80
2022/10/02 10:31:26;;;;;;;;;;;20.20;99.90;;;;;;5068854;28;19975;-80
2022/10/02 10:34:19;;;;;;;;;;;20.20;99.90;;;;;;5073786;28;19929;-80
2022/10/02 10:39:50;;;;;;;;;;;20.20;99.90;;;;;;5070093;28;20415;-80
2022/10/02 10:42:32;;;;;;;;;;;20.20;99.90;;;;;;5069194;28;19933;-80
2022/10/02 10:45:08;;;;;;;;;;;20.00;99.90;;;;;;5066096;28;19959;-80
2022/10/02 10:47:42;;;;;;;;;;;19.70;99.90;;;;;;5073879;28;19946;-80
2022/10/02 10:50:34;;;;;;;;;;;19.30;99.90;;;;;;5164483;22;20558;-85
2022/10/02 10:53:07;;;;;;;;;;;19.30;99.90;;;;;;5084219;28;19932;-82
2022/10/02 10:55:37;;;;;;;;;;;19.20;99.90;;;;;;5080950;28;19950;-84
2022/10/02 10:58:14;;;;;;;;;;;19.00;99.90;;;;;;5067652;28;19936;-81
2022/10/02 11:00:48;;;;;;;;;;;18.90;99.90;;;;;;5067722;28;20291;-83
2022/10/02 11:03:28;;;;;;;;;;;18.80;99.90;;;;;;5070983;28;19936;-84
2022/10/02 11:06:10;;;;;;;;;;;18.70;99.90;;;;;;5061663;28;20395;-84
2022/10/02 11:08:47;;;;;;;;;;;18.90;99.90;;;;;;5066268;28;20025;-84
2022/10/02 11:11:19;;;;;;;;;;;19.30;99.90;;;;;;5077287;28;20309;-85
2022/10/02 11:13:57;;;;;;;;;;;19.40;99.90;;;;;;5072755;28;20057;-85
2022/10/02 11:16:37;;;;;;;;;;;19.70;99.90;;;;;;5074716;28;19928;-83
2022/10/02 11:19:19;;;;;;;;;;;20.20;99.90;;;;;;5061213;28;19948;-84
2022/10/02 11:22:06;;;;;;;;;;;20.60;99.90;;;;;;5065849;28;20973;-84
2022/10/02 11:24:33;;;;;;;;;;;;;;;;;;5059486;28;20051;-84
2022/10/02 11:27:10;;;;;;;;;;;20.60;99.90;;;;;;5058072;28;20015;-84
2022/10/02 11:29:48;;;;;;;;;;;20.50;99.90;;;;;;5065369;28;20008;-85
2022/10/02 11:32:28;;;;;;;;;;;20.40;99.90;;;;;;5075815;28;19925;-84
2022/10/02 11:35:10;;;;;;;;;;;20.40;99.90;;;;;;5075843;28;20280;-84
2022/10/02 11:37:45;;;;;;;;;;;20.60;99.90;;;;;;5060853;28;19933;-84
2022/10/02 11:40:17;;;;;;;;;;;20.70;99.90;;;;;;5076467;28;19928;-84
2022/10/02 11:43:07;;;;;;;;;;;20.90;99.90;;;;;;5058145;28;19932;-85
2022/10/02 11:45:51;;;;;;;;;;;20.90;99.90;;;;;;5072660;28;20078;-85
2022/10/02 11:48:32;;;;;;;;;;;21.10;99.90;;;;;;5067284;28;19951;-86
2022/10/02 11:51:22;;;;;;;;;;;21.20;99.90;;;;;;5065864;28;19932;-87
2022/10/02 11:53:56;;;;;;;;;;;21.30;99.90;;;;;;5049861;28;20302;-86
2022/10/02 11:56:30;;;;;;;;;;;21.40;99.90;;;;;;5071507;28;19964;-86
2022/10/02 11:59:08;;;;;;;;;;;21.40;99.90;;;;;;5072803;28;19930;-85
2022/10/02 12:01:41;;;;;;;;;;;21.30;99.90;;;;;;5073758;28;19925;-86
2022/10/02 12:04:29;;;;;;;;;;;21.20;99.90;;;;;;5072188;28;20327;-83
2022/10/02 12:07:09;;;;;;;;;;;21.20;99.90;;;;;;5062803;28;19974;-87
2022/10/02 12:09:42;;;;;;;;;;;21.20;99.90;;;;;;5071022;28;19924;-86
2022/10/02 12:12:15;;;;;;;;;;;21.40;99.90;;;;;;5080362;28;19935;-85
2022/10/02 12:14:44;;;;;;;;;;;22.10;99.90;;;;;;5054518;28;19932;-84
2022/10/02 12:17:18;;;;;;;;;;;21.80;99.90;;;;;;5079368;28;20316;-83
2022/10/02 12:28:12;;;;;;;;;;;23.10;99.90;;;;;;5077084;28;20338;-86
2022/10/02 12:30:42;;;;;;;;;;;23.00;99.90;;;;;;5071996;28;19997;-85
2022/10/02 12:33:17;;;;;;;;;;;22.90;99.90;;;;;;5068079;28;19936;-84
2022/10/02 12:35:50;;;;;;;;;;;22.70;99.90;;;;;;5069268;28;19936;-86
2022/10/02 12:38:24;;;;;;;;;;;22.60;99.90;;;;;;5066507;28;19979;-84
2022/10/02 12:40:59;;;;;;;;;;;22.50;99.90;;;;;;5062635;28;20008;-85
2022/10/02 12:43:44;;;;;;;;;;;22.40;99.90;;;;;;5070327;28;20018;-87
2022/10/02 12:46:22;;;;;;;;;;;22.20;99.90;;;;;;5068158;28;19937;-85
2022/10/02 12:48:57;;;;;;;;;;;22.20;99.90;;;;;;5067690;28;19932;-85
2022/10/02 12:51:35;;;;;;;;;;;22.00;99.90;;;;;;5068763;28;19928;-85
2022/10/02 12:54:13;;;;;;;;;;;21.90;99.90;;;;;;5069887;28;19925;-86
2022/10/02 12:56:57;;;;;;;;;;;21.80;99.90;;;;;;5068599;28;19932;-85
2022/10/02 12:59:28;;;;;;;;;;;21.80;99.90;;;;;;5069648;28;19940;-85
2022/10/02 13:02:28;;;;;;;;;;;21.80;99.90;;;;;;5067936;28;19931;-85
2022/10/02 13:05:09;;;;;;;;;;;22.20;99.90;;;;;;5011394;28;19926;-86
2022/10/02 13:07:50;;;;;;;;;;;22.20;99.90;;;;;;5045721;28;22314;-85
2022/10/02 13:10:21;;;;;;;;;;;22.30;99.90;;;;;;5067092;28;20430;-85
2022/10/02 13:12:54;;;;;;;;;;;22.30;99.90;;;;;;5071007;28;19986;-84
2022/10/02 13:15:28;;;;;;;;;;;22.20;99.90;;;;;;5070726;28;20458;-84
2022/10/02 13:17:59;;;;;;;;;;;22.00;99.90;;;;;;5070468;28;19986;-84
2022/10/02 13:20:31;;;;;;;;;;;21.70;99.90;;;;;;5065924;28;20812;-85
2022/10/02 13:23:05;;;;;;;;;;;21.40;99.90;;;;;;5073490;28;19924;-85
2022/10/02 13:25:41;;;;;;;;;;;21.20;99.90;;;;;;5059925;28;20098;-84
2022/10/02 13:28:18;;;;;;;;;;;21.20;99.90;;;;;;5056563;28;19933;-85
2022/10/02 13:30:48;;;;;;;;;;;21.10;99.90;;;;;;5063841;28;19913;-85
2022/10/02 13:33:26;;;;;;;;;;;21.00;99.90;;;;;;5079282;28;19913;-84
2022/10/02 13:35:58;;;;;;;;;;;20.90;99.90;;;;;;5066085;28;19939;-85
2022/10/02 13:38:39;;;;;;;;;;;20.70;99.90;;;;;;5061904;28;19925;-84
2022/10/02 13:41:13;;;;;;;;;;;20.60;99.90;;;;;;5063865;28;21425;-85
2022/10/02 13:43:51;;;;;;;;;;;20.60;99.90;;;;;;5081511;28;19959;-85
2022/10/02 13:46:25;;;;;;;;;;;20.30;99.90;;;;;;5084668;28;19944;-85
2022/10/02 13:48:59;;;;;;;;;;;20.20;99.90;;;;;;5057030;28;19959;-85
2022/10/02 13:51:28;;;;;;;;;;;20.10;99.90;;;;;;5055944;28;19925;-85
2022/10/02 13:54:05;;;;;;;;;;;20.00;99.90;;;;;;5059813;28;19932;-85
2022/10/02 13:56:38;;;;;;;;;;;19.80;99.90;;;;;;5052480;28;20408;-85
2022/10/02 13:59:22;;;;;;;;;;;19.80;99.90;;;;;;5068124;28;19959;-85
2022/10/02 14:02:00;;;;;;;;;;;19.80;99.90;;;;;;5071677;28;19932;-85
2022/10/02 14:04:38;;;;;;;;;;;19.80;99.90;;;;;;5076976;28;19932;-85
2022/10/02 14:07:11;;;;;;;;;;;19.90;99.90;;;;;;5069990;28;19935;-84
2022/10/02 14:09:48;;;;;;;;;;;19.90;99.90;;;;;;5069271;28;19928;-85
2022/10/02 14:12:26;;;;;;;;;;;19.90;99.90;;;;;;5070315;28;20324;-85
2022/10/02 14:15:02;;;;;;;;;;;19.70;99.90;;;;;;5054352;28;19932;-84
2022/10/02 14:17:34;;;;;;;;;;;19.70;99.90;;;;;;5060911;28;19937;-85
2022/10/02 14:20:19;;;;;;;;;;;19.70;99.90;;;;;;5064377;28;19940;-84
2022/10/02 14:22:55;;;;;;;;;;;19.70;99.90;;;;;;5079033;28;19928;-84
2022/10/02 14:25:27;;;;;;;;;;;19.80;99.90;;;;;;5059535;28;20402;-84
2022/10/02 14:28:12;;;;;;;;;;;19.90;99.90;;;;;;5066823;28;19936;-84
2022/10/02 14:30:49;;;;;;;;;;;20.00;99.90;;;;;;5053891;28;19924;-84
2022/10/02 14:33:19;;;;;;;;;;;20.10;99.90;;;;;;5070050;28;19935;-84
2022/10/02 14:35:50;;;;;;;;;;;20.20;99.90;;;;;;5068240;28;19924;-84
2022/10/02 14:38:30;;;;;;;;;;;20.20;99.90;;;;;;5050648;28;20590;-86
2022/10/02 14:41:02;;;;;;;;;;;20.20;99.90;;;;;;5068447;28;19935;-86
2022/10/02 14:43:39;;;;;;;;;;;20.10;99.90;;;;;;5067482;28;20390;-85
2022/10/02 14:46:18;;;;;;;;;;;20.00;99.90;;;;;;5073256;28;20005;-83
2022/10/02 14:48:56;;;;;;;;;;;19.80;99.90;;;;;;5071625;28;19928;-84
2022/10/02 14:51:33;;;;;;;;;;;19.70;99.90;;;;;;5063792;28;19932;-84
2022/10/02 14:54:05;;;;;;;;;;;19.60;99.90;;;;;;5065119;28;19943;-85
2022/10/02 14:57:00;;;;;;;;;;;19.50;99.90;;;;;;5073651;28;19928;-84
2022/10/02 14:59:39;;;;;;;;;;;19.30;99.90;;;;;;5032973;28;19932;-85
2022/10/02 15:02:17;;;;;;;;;;;19.20;99.90;;;;;;5068817;28;19950;-86
2022/10/02 15:04:51;;;;;;;;;;;19.00;99.90;;;;;;5070418;28;19939;-85
2022/10/02 15:07:20;;;;;;;;;;;18.90;99.90;;;;;;5078380;28;19939;-84
2022/10/02 15:09:58;;;;;;;;;;;18.80;99.90;;;;;;5069288;28;20262;-85
2022/10/02 15:12:28;;;;;;;;;;;18.80;99.90;;;;;;5062206;28;20031;-85
2022/10/02 15:15:06;;;;;;;;;;;18.60;99.90;;;;;;5069203;28;19935;-84
2022/10/02 15:17:59;;;;;;;;;;;18.60;99.90;;;;;;5074672;28;19998;-88
2022/10/02 15:20:29;;;;;;;;;;;18.60;99.90;;;;;;5066885;28;20590;-86